Rondon do Para, Brazil
Current Conditions -  °F | °C
As of 7:00 AM on Friday 24 Oct 2014 (Local Time) from SBIZ Reporting Station
Haze Haze  
Wind Chill: 73°   Ceiling: 700
Heat Index: 73°   Visibility: 2.1mi
Dew Point: 72°   Wind: 0mph
Humidity: 94%   Direction: NA
Pressure: 29.88"   Gusts: NA
Location:  4.78°S, 48.07°W
Report Text: SBIZ 241000Z 00000KT 3500 BR SCT004 OVC007 23/22 Q1012
Loading
Personal Weather Stations






























Interactive Weather Map
Tropical Storm Tracking
New forecast layout! Learn more

10-Day Weather Forecast

Advertisements
Track Severe Weather on mobile